Time;durP1;ratioP1;P1;durP2;ratioP2;P2;SDS_P1;SDS_P2;PMS_P1;PMS_P2;Temp;Humidity;BMP_temperature;BMP_pressure;BME280_temperature;BME280_humidity;BME280_pressure;Samples;Min_cycle;Max_cycle;Signal;HPM_P1;HPM_P2
2023/06/23 00:00:00;;;;;;;5.30;3.40;;;;;;;21.41;61.77;96315.25;4968280;28;20177;-67
2023/06/23 00:02:27;;;;;;;5.20;2.97;;;;;;;21.38;62.55;96326.16;4970911;28;20197;-67
2023/06/23 00:04:53;;;;;;;5.00;2.43;;;;;;;21.50;62.17;96328.63;4970564;28;20425;-67
2023/06/23 00:07:19;;;;;;;4.97;3.03;;;;;;;21.37;62.31;96328.00;4970892;28;20523;-67
2023/06/23 00:09:44;;;;;;;5.37;2.70;;;;;;;21.47;62.27;96320.91;4970475;28;20565;-66
2023/06/23 00:12:09;;;;;;;6.37;3.10;;;;;;;21.31;62.52;96324.03;4970580;28;20380;-68
2023/06/23 00:14:35;;;;;;;3.40;2.50;;;;;;;21.41;62.16;96323.25;4970573;28;20278;-66
2023/06/23 00:17:01;;;;;;;4.77;3.20;;;;;;;21.31;62.46;96329.38;4970686;28;20227;-66
2023/06/23 00:19:26;;;;;;;3.93;3.00;;;;;;;21.37;62.35;96319.97;4970792;28;20201;-67
2023/06/23 00:21:52;;;;;;;3.27;2.70;;;;;;;21.33;62.40;96318.56;4970531;28;20221;-66
2023/06/23 00:24:18;;;;;;;4.70;2.70;;;;;;;21.32;62.35;96312.38;4970093;28;20680;-67
2023/06/23 00:26:43;;;;;;;6.33;2.80;;;;;;;21.31;62.33;96323.22;4970290;28;20212;-68
2023/06/23 00:29:09;;;;;;;5.40;3.63;;;;;;;21.31;62.57;96309.88;4970152;28;20196;-68
2023/06/23 00:31:34;;;;;;;4.43;3.03;;;;;;;21.20;62.95;96312.63;4969945;28;20177;-68
2023/06/23 00:34:00;;;;;;;5.10;2.90;;;;;;;21.41;62.73;96301.91;4970193;28;20170;-64
2023/06/23 00:36:30;;;;;;;9.83;4.10;;;;;;;21.43;63.04;96305.28;4970354;28;20189;-67
2023/06/23 00:38:56;;;;;;;4.90;3.20;;;;;;;21.35;63.31;96301.44;4970157;28;20174;-66
2023/06/23 00:41:22;;;;;;;6.40;3.40;;;;;;;21.39;63.12;96303.84;4970368;28;20835;-66
2023/06/23 00:43:50;;;;;;;8.37;3.30;;;;;;;21.51;62.60;96306.28;4969871;28;20532;-67
2023/06/23 00:46:21;;;;;;;6.53;3.17;;;;;;;21.54;62.76;96315.84;4969863;28;20256;-66
2023/06/23 00:48:48;;;;;;;7.27;3.53;;;;;;;21.49;62.50;96305.56;4969968;28;20917;-67
2023/06/23 00:51:17;;;;;;;14.73;4.60;;;;;;;21.53;62.42;96309.66;4969653;28;20473;-67
2023/06/23 00:53:47;;;;;;;5.40;3.00;;;;;;;21.47;62.49;96310.22;4969293;28;20495;-66
2023/06/23 00:56:14;;;;;;;23.07;4.60;;;;;;;21.38;62.57;96316.34;4969525;28;20440;-66
2023/06/23 00:58:40;;;;;;;5.50;4.27;;;;;;;21.33;62.51;96314.09;4969552;28;20981;-67
2023/06/23 01:01:07;;;;;;;4.00;3.17;;;;;;;21.20;63.21;96310.78;4969135;28;20417;-65
2023/06/23 01:03:34;;;;;;;4.40;3.33;;;;;;;21.15;63.83;96305.03;4969049;28;20440;-65
2023/06/23 01:06:23;;;;;;;13.53;3.87;;;;;;;21.12;64.07;96305.31;4969174;28;20444;-65
2023/06/23 01:09:03;;;;;;;4.13;3.67;;;;;;;21.16;63.77;96301.38;4969411;28;20425;-65
2023/06/23 01:11:42;;;;;;;5.67;3.40;;;;;;;21.10;63.92;96296.59;4969036;28;20413;-66
2023/06/23 01:14:21;;;;;;;10.27;3.90;;;;;;;21.17;63.74;96292.41;4969403;28;20413;-67
2023/06/23 01:17:25;;;;;;;4.53;3.30;;;;;;;21.21;62.78;96282.28;4969457;28;20416;-66
2023/06/23 01:20:21;;;;;;;6.90;3.37;;;;;;;21.19;62.96;96278.91;4957006;28;20787;-63
2023/06/23 01:22:46;;;;;;;3.07;2.67;;;;;;;20.95;62.90;96285.41;4969157;28;20452;-64
2023/06/23 01:25:44;;;;;;;4.90;3.40;;;;;;;20.98;62.96;96279.00;4968913;28;20850;-66
2023/06/23 01:28:32;;;;;;;5.37;3.13;;;;;;;20.87;63.35;96291.44;4969361;28;20233;-67
2023/06/23 01:31:01;;;;;;;5.87;2.90;;;;;;;21.02;62.64;96285.72;4976571;28;20409;-67
2023/06/23 01:33:37;;;;;;;3.50;2.47;;;;;;;21.03;62.60;96290.09;4968981;28;21041;-66
2023/06/23 01:36:13;;;;;;;6.17;2.90;;;;;;;21.17;62.03;96286.22;4968800;28;20412;-67
2023/06/23 01:38:43;;;;;;;7.87;3.50;;;;;;;21.12;61.86;96283.97;4968626;28;20459;-67
2023/06/23 01:41:17;;;;;;;7.07;3.00;;;;;;;20.99;62.10;96283.34;4968635;28;20413;-67
2023/06/23 01:43:48;;;;;;;4.93;3.23;;;;;;;20.85;62.66;96279.19;4968643;28;20535;-66
2023/06/23 01:46:25;;;;;;;5.43;2.77;;;;;;;20.74;63.11;96290.81;4968563;28;20456;-68
2023/06/23 01:48:54;;;;;;;4.83;3.10;;;;;;;20.79;62.79;96279.72;4968377;28;20500;-67
2023/06/23 01:51:21;;;;;;;4.43;3.20;;;;;;;20.64;63.34;96290.75;4968699;28;21137;-65
2023/06/23 01:53:48;;;;;;;9.60;3.10;;;;;;;20.81;62.82;96283.97;4968820;28;21052;-66
2023/06/23 01:56:14;;;;;;;6.50;2.90;;;;;;;21.12;62.49;96282.13;4968992;28;20415;-65
2023/06/23 01:58:41;;;;;;;7.20;3.33;;;;;;;20.99;62.03;96286.84;4968820;28;20452;-66
2023/06/23 02:01:07;;;;;;;6.07;3.20;;;;;;;21.02;61.81;96283.91;4970972;28;20425;-68
2023/06/23 02:03:33;;;;;;;7.00;3.17;;;;;;;20.97;61.93;96280.78;4982306;28;20429;-67
2023/06/23 02:06:01;;;;;;;13.20;3.23;;;;;;;21.15;61.91;96291.69;4975603;28;20176;-67
2023/06/23 02:08:28;;;;;;;4.43;3.43;;;;;;;20.96;62.11;96292.47;4970671;28;20527;-67
2023/06/23 02:10:55;;;;;;;6.87;3.40;;;;;;;20.90;62.17;96293.81;4969959;28;20401;-67
2023/06/23 02:13:23;;;;;;;8.47;3.20;;;;;;;20.96;61.70;96295.13;4970259;28;20459;-66
2023/06/23 02:15:51;;;;;;;5.57;3.50;;;;;;;20.77;62.68;96300.38;4969272;28;20413;-66
2023/06/23 02:18:18;;;;;;;6.70;3.70;;;;;;;20.81;62.48;96301.78;4970108;28;20413;-65
2023/06/23 02:20:45;;;;;;;7.93;3.80;;;;;;;20.75;62.61;96302.31;4969815;28;20417;-67
2023/06/23 02:23:13;;;;;;;4.90;3.80;;;;;;;20.73;62.68;96307.78;4968772;28;20519;-68
2023/06/23 02:25:40;;;;;;;5.10;3.63;;;;;;;20.57;62.80;96305.56;4968456;28;20416;-66
2023/06/23 02:28:08;;;;;;;6.50;3.80;;;;;;;20.44;64.00;96296.94;4968348;28;20500;-67
2023/06/23 02:30:34;;;;;;;8.80;4.10;;;;;;;20.44;64.48;96305.75;4968323;28;20907;-66
2023/06/23 02:33:00;;;;;;;4.00;3.17;;;;;;;20.38;65.38;96302.75;4967984;28;20465;-69
2023/06/23 02:35:25;;;;;;;5.00;3.73;;;;;;;20.22;65.61;96305.88;4968192;28;20173;-67
2023/06/23 02:38:04;;;;;;;4.00;3.30;;;;;;;20.16;66.19;96303.75;4968623;28;20181;-66
2023/06/23 02:40:33;;;;;;;9.80;3.30;;;;;;;20.13;66.70;96301.34;4968616;28;20635;-66
2023/06/23 02:43:18;;;;;;;11.93;4.00;;;;;;;20.23;66.56;96300.44;4968249;28;20436;-67
2023/06/23 02:45:49;;;;;;;11.53;3.70;;;;;;;20.18;67.18;96299.97;4968361;28;20416;-67
2023/06/23 02:48:19;;;;;;;11.50;3.80;;;;;;;20.21;66.92;96304.19;4968387;28;20480;-66
2023/06/23 02:50:46;;;;;;;7.10;4.00;;;;;;;20.21;67.08;96301.53;4968386;28;20432;-67
2023/06/23 02:53:18;;;;;;;7.83;4.20;;;;;;;19.92;68.78;96298.66;4968100;28;20444;-65
2023/06/23 02:55:46;;;;;;;15.87;4.53;;;;;;;19.95;68.55;96299.22;4967986;28;20523;-68
2023/06/23 02:58:16;;;;;;;5.10;3.67;;;;;;;19.98;68.68;96304.28;4968289;28;21156;-68
2023/06/23 03:00:43;;;;;;;11.90;4.47;;;;;;;19.95;68.53;96317.88;4967928;28;20417;-67
2023/06/23 03:03:13;;;;;;;7.07;3.87;;;;;;;20.01;68.40;96317.38;4977011;28;20437;-69
2023/06/23 03:05:38;;;;;;;10.90;4.83;;;;;;;19.83;69.54;96322.38;4985213;28;21278;-69
2023/06/23 03:08:05;;;;;;;5.83;3.60;;;;;;;19.82;69.69;96331.38;4976397;28;20491;-67
2023/06/23 03:10:31;;;;;;;6.20;3.80;;;;;;;19.85;69.96;96328.44;4968793;28;20173;-65
2023/06/23 03:12:56;;;;;;;9.90;5.50;;;;;;;19.90;69.87;96335.22;4968501;28;20444;-65
2023/06/23 03:15:21;;;;;;;7.10;4.00;;;;;;;19.82;70.81;96335.84;4968575;28;20265;-65
2023/06/23 03:17:49;;;;;;;5.10;4.60;;;;;;;19.79;71.21;96344.06;4968413;28;20514;-64
2023/06/23 03:20:17;;;;;;;10.10;4.57;;;;;;;20.31;69.23;96350.41;4968640;28;20270;-68
2023/06/23 03:22:47;;;;;;;8.30;3.20;;;;;;;20.47;67.74;96360.63;4968319;28;20565;-66
2023/06/23 03:25:42;;;;;;;7.17;3.43;;;;;;;20.72;65.95;96368.28;4967449;28;20512;-64
2023/06/23 03:28:10;;;;;;;2.37;1.83;;;;;;;20.94;65.09;96367.28;4967994;28;20472;-66
2023/06/23 03:30:43;;;;;;;5.10;2.40;;;;;;;20.93;64.25;96362.94;4968770;28;20782;-66
2023/06/23 03:33:13;;;;;;;2.43;1.97;;;;;;;21.03;63.25;96368.31;4968299;28;20448;-66
2023/06/23 03:35:42;;;;;;;46.20;6.50;;;;;;;20.83;63.84;96377.16;4970745;28;20424;-67
2023/06/23 03:38:11;;;;;;;5.73;2.40;;;;;;;21.01;63.43;96372.09;4972901;28;20413;-67
2023/06/23 03:40:59;;;;;;;10.37;2.80;;;;;;;20.91;63.61;96372.88;4972711;28;20428;-67
2023/06/23 03:43:35;;;;;;;8.20;2.63;;;;;;;20.83;63.48;96385.19;4972199;28;20441;-65
2023/06/23 03:46:16;;;;;;;6.33;3.43;;;;;;;20.61;64.52;96391.50;4971902;28;20917;-65
2023/06/23 03:48:44;;;;;;;10.50;3.53;;;;;;;20.56;64.61;96393.72;4971393;28;20434;-67
2023/06/23 03:51:13;;;;;;;5.33;2.97;;;;;;;20.37;65.37;96405.03;4970998;28;20409;-66
2023/06/23 03:53:40;;;;;;;7.00;2.77;;;;;;;20.27;65.57;96404.97;4970944;28;20440;-66
2023/06/23 03:56:08;;;;;;;8.53;2.53;;;;;;;20.75;64.06;96409.00;4971347;28;20412;-66
2023/06/23 03:58:36;;;;;;;3.23;2.53;;;;;;;20.67;64.04;96415.81;4971003;28;20421;-68
2023/06/23 04:01:04;;;;;;;15.97;3.80;;;;;;;20.50;64.56;96427.00;4970964;28;20460;-67
2023/06/23 04:03:32;;;;;;;9.83;3.30;;;;;;;20.65;63.18;96419.59;4970570;28;20458;-68
2023/06/23 04:05:59;;;;;;;7.23;2.90;;;;;;;20.81;62.68;96430.66;4970837;28;20985;-65
2023/06/23 04:08:29;;;;;;;11.40;3.50;;;;;;;20.90;62.48;96426.34;4970757;28;20507;-67
2023/06/23 04:10:57;;;;;;;13.10;3.47;;;;;;;20.66;63.50;96427.44;4970606;28;20938;-68
2023/06/23 04:13:25;;;;;;;6.37;2.43;;;;;;;20.96;62.12;96427.66;4970310;28;20437;-67
2023/06/23 04:15:53;;;;;;;6.83;3.30;;;;;;;20.87;61.54;96443.47;4970510;28;20442;-68
2023/06/23 04:18:21;;;;;;;12.80;4.30;;;;;;;20.84;61.37;96435.72;4970528;28;20814;-69
2023/06/23 04:20:47;;;;;;;15.00;4.73;;;;;;;20.39;63.28;96440.41;4970330;28;20500;-67
2023/06/23 04:23:14;;;;;;;16.67;4.20;;;;;;;20.26;64.01;96446.72;4970205;28;20439;-68
2023/06/23 04:25:42;;;;;;;10.30;4.20;;;;;;;20.33;64.04;96449.72;4970369;28;20829;-67
2023/06/23 04:28:11;;;;;;;26.47;5.20;;;;;;;20.46;64.11;96453.09;4970227;28;20452;-67
2023/06/23 04:30:38;;;;;;;9.07;4.33;;;;;;;20.48;63.03;96451.16;4970594;28;20468;-68
2023/06/23 04:33:03;;;;;;;11.37;5.00;;;;;;;20.42;62.82;96456.97;4970431;28;20974;-69
2023/06/23 04:35:29;;;;;;;5.80;4.90;;;;;;;20.54;62.66;96464.94;4970057;28;20408;-68
2023/06/23 04:38:01;;;;;;;12.60;5.00;;;;;;;20.44;62.78;96470.19;4970406;28;20253;-68
2023/06/23 04:40:37;;;;;;;31.10;6.93;;;;;;;20.50;62.57;96462.53;4970299;28;20177;-68
2023/06/23 04:43:13;;;;;;;31.97;5.80;;;;;;;20.62;62.59;96467.81;4969611;28;20425;-67
2023/06/23 04:46:03;;;;;;;17.77;5.77;;;;;;;20.56;61.92;96469.19;4969255;28;20437;-66
2023/06/23 04:48:34;;;;;;;17.47;6.70;;;;;;;20.23;63.08;96467.47;4969180;28;20433;-67
2023/06/23 04:51:02;;;;;;;9.97;5.83;;;;;;;20.29;62.51;96482.94;4969916;28;20417;-66
2023/06/23 04:53:43;;;;;;;10.83;5.63;;;;;;;20.25;62.96;96489.50;4969028;28;20448;-67
2023/06/23 04:56:15;;;;;;;20.63;6.70;;;;;;;20.16;62.75;96498.25;4969736;28;20413;-68
2023/06/23 04:58:43;;;;;;;27.07;7.73;;;;;;;20.49;62.04;96503.47;4969347;28;20942;-66
2023/06/23 05:01:11;;;;;;;18.57;7.20;;;;;;;20.27;62.26;96506.22;4969706;28;20531;-69
2023/06/23 05:03:38;;;;;;;11.87;6.50;;;;;;;20.36;61.71;96520.59;4969222;28;20475;-67
2023/06/23 05:06:06;;;;;;;10.93;6.90;;;;;;;20.47;61.30;96517.91;4968716;28;20509;-68
2023/06/23 05:08:33;;;;;;;12.00;6.60;;;;;;;20.27;61.47;96519.53;4967576;28;20728;-67
2023/06/23 05:11:05;;;;;;;16.73;6.57;;;;;;;20.24;61.67;96523.28;4969082;28;20431;-66
2023/06/23 05:13:33;;;;;;;20.33;7.03;;;;;;;20.38;61.06;96527.50;4981473;28;20973;-68
2023/06/23 05:16:02;;;;;;;14.80;7.40;;;;;;;20.21;61.31;96525.34;4977247;28;20421;-69
2023/06/23 05:18:29;;;;;;;22.90;8.77;;;;;;;20.20;61.45;96521.00;4970166;28;20417;-67
2023/06/23 05:20:58;;;;;;;15.70;6.40;;;;;;;20.19;62.06;96527.28;4969240;28;20441;-65
2023/06/23 05:23:26;;;;;;;9.97;6.63;;;;;;;20.40;61.71;96528.22;4970591;28;20480;-69
2023/06/23 05:25:56;;;;;;;12.23;6.57;;;;;;;20.72;60.13;96535.44;4968354;28;20547;-66
2023/06/23 05:28:24;;;;;;;15.50;6.50;;;;;;;20.65;60.25;96528.94;4967762;28;20464;-68
2023/06/23 05:30:52;;;;;;;16.57;8.00;;;;;;;20.89;59.19;96537.56;4969293;28;20706;-69
2023/06/23 05:33:19;;;;;;;12.40;7.70;;;;;;;20.65;59.54;96544.94;4968773;28;20472;-69
2023/06/23 05:35:45;;;;;;;22.03;6.87;;;;;;;20.74;59.89;96544.16;4968708;28;21090;-68
2023/06/23 05:38:12;;;;;;;56.10;9.37;;;;;;;20.72;60.23;96543.44;4970208;28;20424;-66
2023/06/23 05:40:38;;;;;;;17.27;7.40;;;;;;;20.79;59.61;96544.63;4969775;28;20476;-66
2023/06/23 05:43:04;;;;;;;10.77;6.50;;;;;;;20.66;59.27;96544.78;4969533;28;20532;-67
2023/06/23 05:45:29;;;;;;;15.33;7.97;;;;;;;20.39;59.61;96544.34;4968905;28;20496;-67
2023/06/23 05:48:19;;;;;;;48.17;10.80;;;;;;;20.36;59.95;96555.25;4968719;28;20760;-68
2023/06/23 05:50:46;;;;;;;20.10;8.63;;;;;;;20.26;59.95;96557.81;4968512;28;20173;-67
2023/06/23 05:53:16;;;;;;;501.63;49.43;;;;;;;20.20;60.62;96568.97;4968410;28;20436;-66
2023/06/23 05:56:00;;;;;;;442.93;45.13;;;;;;;20.17;60.43;96572.72;4968315;28;20517;-66
2023/06/23 05:58:31;;;;;;;1136.13;115.17;;;;;;;20.38;60.08;96567.47;4968254;28;20513;-66
2023/06/23 06:01:00;;;;;;;64.63;12.50;;;;;;;20.36;59.89;96569.41;4966356;28;20946;-67
2023/06/23 06:03:44;;;;;;;159.03;20.40;;;;;;;20.51;59.20;96568.19;4959949;28;20961;-69
2023/06/23 06:06:11;;;;;;;87.30;18.17;;;;;;;20.55;59.58;96575.94;4968433;28;20417;-67
2023/06/23 06:08:38;;;;;;;16.40;8.33;;;;;;;20.67;58.67;96585.63;4968208;28;21229;-65
